sensor_id;sensor_type;location;lat;lon;timestamp;P1;durP1;ratioP1;P2;durP2;ratioP2
32295;SDS011;18781;51.550;5.418;2022-10-16T00:01:17;8.02;;;3.78;;
32295;SDS011;18781;51.550;5.418;2022-10-16T00:03:45;6.45;;;3.60;;
32295;SDS011;18781;51.550;5.418;2022-10-16T00:06:11;12.10;;;4.30;;
32295;SDS011;18781;51.550;5.418;2022-10-16T00:08:38;6.78;;;3.65;;
32295;SDS011;18781;51.550;5.418;2022-10-16T00:13:32;12.05;;;4.10;;
32295;SDS011;18781;51.550;5.418;2022-10-16T00:16:00;13.30;;;4.15;;
32295;SDS011;18781;51.550;5.418;2022-10-16T00:18:26;11.05;;;4.07;;
32295;SDS011;18781;51.550;5.418;2022-10-16T00:20:53;11.05;;;4.50;;
32295;SDS011;18781;51.550;5.418;2022-10-16T00:23:19;8.55;;;3.45;;
32295;SDS011;18781;51.550;5.418;2022-10-16T00:25:53;10.27;;;3.95;;
32295;SDS011;18781;51.550;5.418;2022-10-16T00:28:20;11.20;;;4.38;;
32295;SDS011;18781;51.550;5.418;2022-10-16T00:30:46;11.48;;;4.05;;
32295;SDS011;18781;51.550;5.418;2022-10-16T00:33:12;11.57;;;3.97;;
32295;SDS011;18781;51.550;5.418;2022-10-16T00:35:37;6.05;;;4.05;;
32295;SDS011;18781;51.550;5.418;2022-10-16T00:38:03;6.43;;;3.70;;
32295;SDS011;18781;51.550;5.418;2022-10-16T00:40:28;9.57;;;4.40;;
32295;SDS011;18781;51.550;5.418;2022-10-16T00:42:54;9.27;;;3.95;;
32295;SDS011;18781;51.550;5.418;2022-10-16T00:45:20;10.02;;;3.75;;
32295;SDS011;18781;51.550;5.418;2022-10-16T00:47:45;10.27;;;3.53;;
32295;SDS011;18781;51.550;5.418;2022-10-16T00:52:53;5.75;;;3.72;;
32295;SDS011;18781;51.550;5.418;2022-10-16T00:55:20;5.18;;;3.15;;
32295;SDS011;18781;51.550;5.418;2022-10-16T00:57:46;9.15;;;3.70;;
32295;SDS011;18781;51.550;5.418;2022-10-16T01:00:15;12.38;;;3.47;;
32295;SDS011;18781;51.550;5.418;2022-10-16T01:02:43;6.22;;;3.10;;
32295;SDS011;18781;51.550;5.418;2022-10-16T01:05:09;8.02;;;3.35;;
32295;SDS011;18781;51.550;5.418;2022-10-16T01:12:58;5.25;;;2.72;;
32295;SDS011;18781;51.550;5.418;2022-10-16T01:15:52;10.35;;;2.83;;
32295;SDS011;18781;51.550;5.418;2022-10-16T01:31:37;7.40;;;2.85;;
32295;SDS011;18781;51.550;5.418;2022-10-16T01:34:11;6.97;;;3.10;;
32295;SDS011;18781;51.550;5.418;2022-10-16T01:36:49;9.30;;;3.17;;
32295;SDS011;18781;51.550;5.418;2022-10-16T01:39:20;6.40;;;3.08;;
32295;SDS011;18781;51.550;5.418;2022-10-16T01:41:51;9.88;;;3.35;;
32295;SDS011;18781;51.550;5.418;2022-10-16T01:44:24;9.43;;;2.92;;
32295;SDS011;18781;51.550;5.418;2022-10-16T01:46:54;9.35;;;2.90;;
32295;SDS011;18781;51.550;5.418;2022-10-16T01:49:21;11.32;;;3.20;;
32295;SDS011;18781;51.550;5.418;2022-10-16T01:51:52;7.75;;;2.97;;
32295;SDS011;18781;51.550;5.418;2022-10-16T01:54:20;8.20;;;3.05;;
32295;SDS011;18781;51.550;5.418;2022-10-16T01:56:50;9.90;;;3.10;;
32295;SDS011;18781;51.550;5.418;2022-10-16T01:59:18;8.35;;;2.85;;
32295;SDS011;18781;51.550;5.418;2022-10-16T02:01:50;10.82;;;3.08;;
32295;SDS011;18781;51.550;5.418;2022-10-16T02:04:22;6.75;;;3.10;;
32295;SDS011;18781;51.550;5.418;2022-10-16T02:06:54;8.25;;;3.08;;
32295;SDS011;18781;51.550;5.418;2022-10-16T02:09:20;11.00;;;3.13;;
32295;SDS011;18781;51.550;5.418;2022-10-16T02:11:46;9.60;;;2.95;;
32295;SDS011;18781;51.550;5.418;2022-10-16T02:14:14;10.00;;;2.78;;
32295;SDS011;18781;51.550;5.418;2022-10-16T02:16:40;5.65;;;2.60;;
32295;SDS011;18781;51.550;5.418;2022-10-16T02:19:08;4.97;;;2.70;;
32295;SDS011;18781;51.550;5.418;2022-10-16T02:21:48;7.68;;;2.72;;
32295;SDS011;18781;51.550;5.418;2022-10-16T02:24:32;12.10;;;2.60;;
32295;SDS011;18781;51.550;5.418;2022-10-16T02:27:10;8.55;;;2.65;;
32295;SDS011;18781;51.550;5.418;2022-10-16T02:29:38;5.38;;;2.53;;
32295;SDS011;18781;51.550;5.418;2022-10-16T02:32:10;3.53;;;2.38;;
32295;SDS011;18781;51.550;5.418;2022-10-16T02:34:38;3.47;;;2.42;;
32295;SDS011;18781;51.550;5.418;2022-10-16T02:37:05;6.30;;;2.63;;
32295;SDS011;18781;51.550;5.418;2022-10-16T02:39:32;5.13;;;2.25;;
32295;SDS011;18781;51.550;5.418;2022-10-16T02:41:59;5.90;;;2.58;;
32295;SDS011;18781;51.550;5.418;2022-10-16T02:44:24;12.30;;;2.70;;
32295;SDS011;18781;51.550;5.418;2022-10-16T02:46:50;5.20;;;2.40;;
32295;SDS011;18781;51.550;5.418;2022-10-16T02:49:16;6.45;;;2.75;;
32295;SDS011;18781;51.550;5.418;2022-10-16T02:51:42;5.15;;;2.55;;
32295;SDS011;18781;51.550;5.418;2022-10-16T02:54:08;6.70;;;2.53;;
32295;SDS011;18781;51.550;5.418;2022-10-16T02:56:33;6.90;;;2.53;;
32295;SDS011;18781;51.550;5.418;2022-10-16T02:58:59;6.68;;;2.10;;
32295;SDS011;18781;51.550;5.418;2022-10-16T03:01:24;6.78;;;2.65;;
32295;SDS011;18781;51.550;5.418;2022-10-16T03:03:50;11.13;;;2.75;;
32295;SDS011;18781;51.550;5.418;2022-10-16T03:06:16;4.72;;;2.55;;
32295;SDS011;18781;51.550;5.418;2022-10-16T03:08:41;5.85;;;2.20;;
32295;SDS011;18781;51.550;5.418;2022-10-16T03:11:07;5.75;;;2.20;;
32295;SDS011;18781;51.550;5.418;2022-10-16T03:13:32;7.88;;;2.20;;
32295;SDS011;18781;51.550;5.418;2022-10-16T03:15:58;7.00;;;2.35;;
32295;SDS011;18781;51.550;5.418;2022-10-16T03:18:24;5.65;;;2.03;;
32295;SDS011;18781;51.550;5.418;2022-10-16T03:20:49;4.22;;;2.03;;
32295;SDS011;18781;51.550;5.418;2022-10-16T03:23:15;8.02;;;2.28;;
32295;SDS011;18781;51.550;5.418;2022-10-16T03:25:40;8.23;;;2.00;;
32295;SDS011;18781;51.550;5.418;2022-10-16T03:28:06;6.07;;;1.98;;
32295;SDS011;18781;51.550;5.418;2022-10-16T03:30:32;4.22;;;2.08;;
32295;SDS011;18781;51.550;5.418;2022-10-16T03:32:57;5.13;;;2.08;;
32295;SDS011;18781;51.550;5.418;2022-10-16T03:35:23;7.13;;;2.13;;
32295;SDS011;18781;51.550;5.418;2022-10-16T03:37:49;4.25;;;2.10;;
32295;SDS011;18781;51.550;5.418;2022-10-16T03:40:15;4.03;;;2.03;;
32295;SDS011;18781;51.550;5.418;2022-10-16T03:42:42;8.18;;;2.10;;
32295;SDS011;18781;51.550;5.418;2022-10-16T03:45:08;4.10;;;2.00;;
32295;SDS011;18781;51.550;5.418;2022-10-16T03:47:34;4.93;;;2.03;;
32295;SDS011;18781;51.550;5.418;2022-10-16T03:50:00;4.30;;;1.73;;
32295;SDS011;18781;51.550;5.418;2022-10-16T03:52:26;4.43;;;1.70;;
32295;SDS011;18781;51.550;5.418;2022-10-16T03:54:51;3.85;;;1.60;;
32295;SDS011;18781;51.550;5.418;2022-10-16T03:57:17;6.30;;;1.95;;
32295;SDS011;18781;51.550;5.418;2022-10-16T03:59:43;4.38;;;1.70;;
32295;SDS011;18781;51.550;5.418;2022-10-16T04:02:08;3.17;;;1.83;;
32295;SDS011;18781;51.550;5.418;2022-10-16T04:04:34;5.45;;;1.95;;
32295;SDS011;18781;51.550;5.418;2022-10-16T04:07:00;9.40;;;2.00;;
32295;SDS011;18781;51.550;5.418;2022-10-16T04:09:26;4.85;;;2.00;;
32295;SDS011;18781;51.550;5.418;2022-10-16T04:11:52;5.50;;;2.00;;
32295;SDS011;18781;51.550;5.418;2022-10-16T04:14:17;4.88;;;1.83;;
32295;SDS011;18781;51.550;5.418;2022-10-16T04:16:43;5.18;;;1.88;;
32295;SDS011;18781;51.550;5.418;2022-10-16T04:19:09;6.90;;;2.08;;
32295;SDS011;18781;51.550;5.418;2022-10-16T04:21:35;5.68;;;2.03;;
32295;SDS011;18781;51.550;5.418;2022-10-16T04:24:01;5.03;;;2.13;;
32295;SDS011;18781;51.550;5.418;2022-10-16T04:26:27;5.18;;;2.00;;
32295;SDS011;18781;51.550;5.418;2022-10-16T04:28:52;4.10;;;2.20;;
32295;SDS011;18781;51.550;5.418;2022-10-16T04:31:18;7.07;;;2.30;;
32295;SDS011;18781;51.550;5.418;2022-10-16T04:33:44;5.88;;;2.17;;
32295;SDS011;18781;51.550;5.418;2022-10-16T04:36:10;5.93;;;1.90;;
32295;SDS011;18781;51.550;5.418;2022-10-16T04:38:35;5.38;;;2.30;;
32295;SDS011;18781;51.550;5.418;2022-10-16T04:41:02;5.68;;;2.08;;
32295;SDS011;18781;51.550;5.418;2022-10-16T04:43:28;8.52;;;2.40;;
32295;SDS011;18781;51.550;5.418;2022-10-16T04:45:54;7.22;;;2.30;;
32295;SDS011;18781;51.550;5.418;2022-10-16T04:48:20;7.43;;;2.65;;
32295;SDS011;18781;51.550;5.418;2022-10-16T04:50:45;10.35;;;2.22;;
32295;SDS011;18781;51.550;5.418;2022-10-16T04:53:11;9.90;;;2.38;;
32295;SDS011;18781;51.550;5.418;2022-10-16T04:55:37;5.93;;;2.58;;
32295;SDS011;18781;51.550;5.418;2022-10-16T04:58:03;7.25;;;2.25;;
32295;SDS011;18781;51.550;5.418;2022-10-16T05:00:29;6.97;;;2.53;;
32295;SDS011;18781;51.550;5.418;2022-10-16T05:02:54;8.50;;;2.65;;
32295;SDS011;18781;51.550;5.418;2022-10-16T05:05:20;5.20;;;2.38;;
32295;SDS011;18781;51.550;5.418;2022-10-16T05:07:46;3.78;;;2.63;;
32295;SDS011;18781;51.550;5.418;2022-10-16T05:10:12;7.10;;;2.33;;
32295;SDS011;18781;51.550;5.418;2022-10-16T05:12:38;14.93;;;2.45;;
32295;SDS011;18781;51.550;5.418;2022-10-16T05:15:04;6.15;;;2.35;;
32295;SDS011;18781;51.550;5.418;2022-10-16T05:17:30;5.85;;;2.30;;
32295;SDS011;18781;51.550;5.418;2022-10-16T05:19:55;5.50;;;2.85;;
32295;SDS011;18781;51.550;5.418;2022-10-16T05:22:21;6.80;;;2.90;;
32295;SDS011;18781;51.550;5.418;2022-10-16T05:24:47;7.00;;;2.30;;
32295;SDS011;18781;51.550;5.418;2022-10-16T05:27:12;5.25;;;2.30;;
32295;SDS011;18781;51.550;5.418;2022-10-16T05:29:44;7.05;;;2.50;;
32295;SDS011;18781;51.550;5.418;2022-10-16T05:32:11;7.70;;;2.42;;
32295;SDS011;18781;51.550;5.418;2022-10-16T05:34:38;8.15;;;2.95;;
32295;SDS011;18781;51.550;5.418;2022-10-16T05:37:03;5.30;;;2.58;;
32295;SDS011;18781;51.550;5.418;2022-10-16T05:39:29;7.35;;;2.58;;
32295;SDS011;18781;51.550;5.418;2022-10-16T05:41:55;8.02;;;2.53;;
32295;SDS011;18781;51.550;5.418;2022-10-16T05:44:21;8.00;;;2.72;;
32295;SDS011;18781;51.550;5.418;2022-10-16T05:46:46;8.93;;;2.63;;
32295;SDS011;18781;51.550;5.418;2022-10-16T05:49:12;6.93;;;2.70;;
32295;SDS011;18781;51.550;5.418;2022-10-16T05:51:37;4.75;;;2.70;;
32295;SDS011;18781;51.550;5.418;2022-10-16T05:54:03;7.47;;;2.50;;
32295;SDS011;18781;51.550;5.418;2022-10-16T05:56:29;5.97;;;2.70;;
32295;SDS011;18781;51.550;5.418;2022-10-16T05:58:54;11.15;;;2.67;;
32295;SDS011;18781;51.550;5.418;2022-10-16T06:01:20;5.53;;;2.55;;
32295;SDS011;18781;51.550;5.418;2022-10-16T06:03:48;5.50;;;2.25;;
32295;SDS011;18781;51.550;5.418;2022-10-16T06:06:19;7.18;;;2.95;;
32295;SDS011;18781;51.550;5.418;2022-10-16T06:08:47;6.72;;;2.20;;
32295;SDS011;18781;51.550;5.418;2022-10-16T06:11:14;7.22;;;2.45;;
32295;SDS011;18781;51.550;5.418;2022-10-16T06:13:44;9.88;;;2.67;;
32295;SDS011;18781;51.550;5.418;2022-10-16T06:16:11;5.40;;;2.47;;
32295;SDS011;18781;51.550;5.418;2022-10-16T06:18:37;6.85;;;2.92;;
32295;SDS011;18781;51.550;5.418;2022-10-16T06:21:07;6.43;;;2.70;;
32295;SDS011;18781;51.550;5.418;2022-10-16T06:23:34;8.43;;;2.85;;
32295;SDS011;18781;51.550;5.418;2022-10-16T06:26:10;5.15;;;2.53;;
32295;SDS011;18781;51.550;5.418;2022-10-16T06:28:37;8.48;;;2.95;;
32295;SDS011;18781;51.550;5.418;2022-10-16T06:31:04;10.75;;;3.00;;
32295;SDS011;18781;51.550;5.418;2022-10-16T06:33:31;10.88;;;2.88;;
32295;SDS011;18781;51.550;5.418;2022-10-16T06:36:03;6.30;;;2.90;;
32295;SDS011;18781;51.550;5.418;2022-10-16T06:38:31;9.05;;;3.17;;
32295;SDS011;18781;51.550;5.418;2022-10-16T06:40:57;5.72;;;2.50;;
32295;SDS011;18781;51.550;5.418;2022-10-16T06:43:23;9.57;;;2.70;;
32295;SDS011;18781;51.550;5.418;2022-10-16T06:45:55;7.07;;;2.90;;
32295;SDS011;18781;51.550;5.418;2022-10-16T06:48:22;8.52;;;2.72;;
32295;SDS011;18781;51.550;5.418;2022-10-16T06:50:55;14.02;;;3.13;;
32295;SDS011;18781;51.550;5.418;2022-10-16T06:53:27;5.63;;;2.95;;
32295;SDS011;18781;51.550;5.418;2022-10-16T06:55:55;8.32;;;2.90;;
32295;SDS011;18781;51.550;5.418;2022-10-16T06:58:21;9.77;;;2.88;;
32295;SDS011;18781;51.550;5.418;2022-10-16T07:00:46;8.32;;;2.75;;
32295;SDS011;18781;51.550;5.418;2022-10-16T07:03:12;12.35;;;3.13;;
32295;SDS011;18781;51.550;5.418;2022-10-16T07:05:38;9.27;;;3.10;;
32295;SDS011;18781;51.550;5.418;2022-10-16T07:08:05;7.03;;;2.78;;
32295;SDS011;18781;51.550;5.418;2022-10-16T07:10:32;8.60;;;2.90;;
32295;SDS011;18781;51.550;5.418;2022-10-16T07:12:58;5.78;;;2.88;;
32295;SDS011;18781;51.550;5.418;2022-10-16T07:15:24;5.93;;;2.58;;
32295;SDS011;18781;51.550;5.418;2022-10-16T07:17:50;8.88;;;3.00;;
32295;SDS011;18781;51.550;5.418;2022-10-16T07:20:16;6.38;;;2.85;;
32295;SDS011;18781;51.550;5.418;2022-10-16T07:22:41;7.82;;;3.33;;
32295;SDS011;18781;51.550;5.418;2022-10-16T07:25:07;14.20;;;2.92;;
32295;SDS011;18781;51.550;5.418;2022-10-16T07:27:33;8.05;;;2.85;;
32295;SDS011;18781;51.550;5.418;2022-10-16T07:29:59;6.03;;;2.60;;
32295;SDS011;18781;51.550;5.418;2022-10-16T07:32:24;8.10;;;2.72;;
32295;SDS011;18781;51.550;5.418;2022-10-16T07:34:50;8.13;;;2.70;;
32295;SDS011;18781;51.550;5.418;2022-10-16T07:37:17;8.18;;;2.63;;
32295;SDS011;18781;51.550;5.418;2022-10-16T07:39:42;11.15;;;2.45;;
32295;SDS011;18781;51.550;5.418;2022-10-16T07:42:08;9.68;;;2.97;;
32295;SDS011;18781;51.550;5.418;2022-10-16T07:44:33;6.22;;;2.65;;
32295;SDS011;18781;51.550;5.418;2022-10-16T07:46:59;9.38;;;2.40;;
32295;SDS011;18781;51.550;5.418;2022-10-16T07:49:25;13.25;;;2.90;;
32295;SDS011;18781;51.550;5.418;2022-10-16T07:51:50;6.45;;;2.63;;
32295;SDS011;18781;51.550;5.418;2022-10-16T07:54:16;7.05;;;2.75;;
32295;SDS011;18781;51.550;5.418;2022-10-16T07:56:42;12.63;;;2.67;;
32295;SDS011;18781;51.550;5.418;2022-10-16T07:59:07;11.50;;;2.95;;
32295;SDS011;18781;51.550;5.418;2022-10-16T08:01:33;11.30;;;3.00;;
32295;SDS011;18781;51.550;5.418;2022-10-16T08:03:58;7.50;;;2.55;;
32295;SDS011;18781;51.550;5.418;2022-10-16T08:06:24;9.95;;;3.35;;
32295;SDS011;18781;51.550;5.418;2022-10-16T08:08:50;13.90;;;3.25;;
32295;SDS011;18781;51.550;5.418;2022-10-16T08:11:15;10.73;;;2.95;;
32295;SDS011;18781;51.550;5.418;2022-10-16T08:13:41;8.82;;;2.70;;
32295;SDS011;18781;51.550;5.418;2022-10-16T08:16:07;6.25;;;2.95;;
32295;SDS011;18781;51.550;5.418;2022-10-16T08:18:35;5.55;;;2.72;;
32295;SDS011;18781;51.550;5.418;2022-10-16T08:21:01;5.75;;;2.50;;
32295;SDS011;18781;51.550;5.418;2022-10-16T08:23:28;7.30;;;2.42;;
32295;SDS011;18781;51.550;5.418;2022-10-16T08:25:54;10.07;;;2.85;;
32295;SDS011;18781;51.550;5.418;2022-10-16T08:28:21;6.00;;;2.90;;
32295;SDS011;18781;51.550;5.418;2022-10-16T08:30:47;8.50;;;2.80;;
32295;SDS011;18781;51.550;5.418;2022-10-16T08:33:13;8.77;;;2.90;;
32295;SDS011;18781;51.550;5.418;2022-10-16T08:35:39;8.27;;;2.63;;
32295;SDS011;18781;51.550;5.418;2022-10-16T08:38:05;9.40;;;2.85;;
32295;SDS011;18781;51.550;5.418;2022-10-16T08:40:32;8.52;;;2.83;;
32295;SDS011;18781;51.550;5.418;2022-10-16T08:51:10;10.48;;;2.70;;
32295;SDS011;18781;51.550;5.418;2022-10-16T08:53:49;6.95;;;2.13;;
32295;SDS011;18781;51.550;5.418;2022-10-16T08:56:22;9.75;;;2.72;;
32295;SDS011;18781;51.550;5.418;2022-10-16T08:58:48;8.70;;;2.63;;
32295;SDS011;18781;51.550;5.418;2022-10-16T09:01:15;12.93;;;2.28;;
32295;SDS011;18781;51.550;5.418;2022-10-16T09:06:55;6.28;;;2.15;;
32295;SDS011;18781;51.550;5.418;2022-10-16T09:12:12;8.43;;;2.25;;
32295;SDS011;18781;51.550;5.418;2022-10-16T09:23:00;11.65;;;2.50;;
32295;SDS011;18781;51.550;5.418;2022-10-16T09:25:37;13.63;;;2.15;;
32295;SDS011;18781;51.550;5.418;2022-10-16T09:28:07;10.43;;;1.95;;
32295;SDS011;18781;51.550;5.418;2022-10-16T09:30:34;8.90;;;2.00;;
32295;SDS011;18781;51.550;5.418;2022-10-16T09:33:00;11.40;;;2.70;;
32295;SDS011;18781;51.550;5.418;2022-10-16T09:35:37;10.57;;;2.72;;
32295;SDS011;18781;51.550;5.418;2022-10-16T09:38:47;11.80;;;2.28;;
32295;SDS011;18781;51.550;5.418;2022-10-16T09:41:23;11.77;;;2.58;;
32295;SDS011;18781;51.550;5.418;2022-10-16T09:43:57;17.80;;;2.67;;
32295;SDS011;18781;51.550;5.418;2022-10-16T09:46:27;15.25;;;2.70;;
32295;SDS011;18781;51.550;5.418;2022-10-16T09:49:04;17.23;;;2.83;;
32295;SDS011;18781;51.550;5.418;2022-10-16T09:51:45;15.32;;;2.88;;
32295;SDS011;18781;51.550;5.418;2022-10-16T09:54:13;10.88;;;2.30;;
32295;SDS011;18781;51.550;5.418;2022-10-16T09:56:44;18.33;;;2.83;;
32295;SDS011;18781;51.550;5.418;2022-10-16T09:59:20;13.18;;;2.40;;
32295;SDS011;18781;51.550;5.418;2022-10-16T10:01:52;10.85;;;2.25;;
32295;SDS011;18781;51.550;5.418;2022-10-16T10:04:20;7.53;;;2.50;;
32295;SDS011;18781;51.550;5.418;2022-10-16T10:06:48;16.90;;;2.75;;
32295;SDS011;18781;51.550;5.418;2022-10-16T10:14:31;13.32;;;2.55;;
32295;SDS011;18781;51.550;5.418;2022-10-16T10:17:12;19.77;;;3.13;;
32295;SDS011;18781;51.550;5.418;2022-10-16T10:22:24;20.02;;;2.80;;
32295;SDS011;18781;51.550;5.418;2022-10-16T10:35:42;17.25;;;3.00;;
32295;SDS011;18781;51.550;5.418;2022-10-16T10:49:57;14.90;;;2.88;;
32295;SDS011;18781;51.550;5.418;2022-10-16T10:52:43;17.17;;;2.53;;
32295;SDS011;18781;51.550;5.418;2022-10-16T10:58:24;19.70;;;3.45;;
32295;SDS011;18781;51.550;5.418;2022-10-16T11:06:29;16.60;;;2.65;;
32295;SDS011;18781;51.550;5.418;2022-10-16T11:09:00;14.35;;;2.80;;
32295;SDS011;18781;51.550;5.418;2022-10-16T11:14:18;13.23;;;2.60;;
32295;SDS011;18781;51.550;5.418;2022-10-16T11:19:25;16.00;;;2.70;;
32295;SDS011;18781;51.550;5.418;2022-10-16T11:22:20;24.27;;;2.90;;
32295;SDS011;18781;51.550;5.418;2022-10-16T11:28:19;25.02;;;3.92;;
32295;SDS011;18781;51.550;5.418;2022-10-16T11:30:29;14.77;;;2.58;;
32295;SDS011;18781;51.550;5.418;2022-10-16T11:33:04;18.48;;;3.25;;
32295;SDS011;18781;51.550;5.418;2022-10-16T11:35:38;22.10;;;3.40;;
32295;SDS011;18781;51.550;5.418;2022-10-16T11:38:10;19.42;;;3.13;;
32295;SDS011;18781;51.550;5.418;2022-10-16T11:40:51;17.95;;;2.85;;
32295;SDS011;18781;51.550;5.418;2022-10-16T11:43:32;22.40;;;3.40;;
32295;SDS011;18781;51.550;5.418;2022-10-16T11:46:05;22.13;;;2.92;;
32295;SDS011;18781;51.550;5.418;2022-10-16T11:48:48;24.30;;;3.58;;
32295;SDS011;18781;51.550;5.418;2022-10-16T11:54:07;16.35;;;3.03;;
32295;SDS011;18781;51.550;5.418;2022-10-16T11:56:36;18.55;;;3.10;;
32295;SDS011;18781;51.550;5.418;2022-10-16T12:07:11;15.15;;;2.78;;
32295;SDS011;18781;51.550;5.418;2022-10-16T12:09:41;15.25;;;3.00;;
32295;SDS011;18781;51.550;5.418;2022-10-16T12:12:24;15.60;;;2.83;;
32295;SDS011;18781;51.550;5.418;2022-10-16T12:15:41;18.65;;;3.03;;
32295;SDS011;18781;51.550;5.418;2022-10-16T12:17:51;17.75;;;3.03;;
32295;SDS011;18781;51.550;5.418;2022-10-16T12:20:22;14.27;;;2.58;;
32295;SDS011;18781;51.550;5.418;2022-10-16T12:22:52;17.80;;;3.33;;
32295;SDS011;18781;51.550;5.418;2022-10-16T12:25:21;12.43;;;2.90;;
32295;SDS011;18781;51.550;5.418;2022-10-16T12:30:31;21.30;;;2.78;;
32295;SDS011;18781;51.550;5.418;2022-10-16T12:33:00;15.63;;;2.70;;
32295;SDS011;18781;51.550;5.418;2022-10-16T12:35:32;10.00;;;2.60;;
32295;SDS011;18781;51.550;5.418;2022-10-16T12:38:18;10.35;;;2.47;;
32295;SDS011;18781;51.550;5.418;2022-10-16T12:40:53;11.85;;;2.70;;
32295;SDS011;18781;51.550;5.418;2022-10-16T12:46:20;16.95;;;2.72;;
32295;SDS011;18781;51.550;5.418;2022-10-16T12:48:49;14.10;;;2.63;;
32295;SDS011;18781;51.550;5.418;2022-10-16T12:54:00;9.80;;;2.15;;
32295;SDS011;18781;51.550;5.418;2022-10-16T12:56:49;13.27;;;2.28;;
32295;SDS011;18781;51.550;5.418;2022-10-16T13:05:23;14.32;;;2.25;;
32295;SDS011;18781;51.550;5.418;2022-10-16T13:11:01;16.95;;;2.80;;
32295;SDS011;18781;51.550;5.418;2022-10-16T13:19:04;12.43;;;2.40;;
32295;SDS011;18781;51.550;5.418;2022-10-16T13:25:13;9.30;;;2.00;;
32295;SDS011;18781;51.550;5.418;2022-10-16T13:27:54;11.82;;;2.40;;
32295;SDS011;18781;51.550;5.418;2022-10-16T13:30:23;11.68;;;2.17;;
32295;SDS011;18781;51.550;5.418;2022-10-16T13:35:23;11.90;;;2.35;;
32295;SDS011;18781;51.550;5.418;2022-10-16T13:40:54;9.45;;;2.13;;
32295;SDS011;18781;51.550;5.418;2022-10-16T13:43:31;12.18;;;2.53;;
32295;SDS011;18781;51.550;5.418;2022-10-16T13:46:10;12.32;;;2.30;;
32295;SDS011;18781;51.550;5.418;2022-10-16T13:48:38;13.32;;;2.38;;
32295;SDS011;18781;51.550;5.418;2022-10-16T13:51:05;9.95;;;2.22;;
32295;SDS011;18781;51.550;5.418;2022-10-16T13:53:36;10.50;;;2.00;;
32295;SDS011;18781;51.550;5.418;2022-10-16T13:56:02;12.10;;;2.30;;
32295;SDS011;18781;51.550;5.418;2022-10-16T13:58:30;9.35;;;1.90;;
32295;SDS011;18781;51.550;5.418;2022-10-16T14:00:56;8.20;;;2.00;;
32295;SDS011;18781;51.550;5.418;2022-10-16T14:03:25;11.02;;;2.17;;
32295;SDS011;18781;51.550;5.418;2022-10-16T14:05:53;12.38;;;2.08;;
32295;SDS011;18781;51.550;5.418;2022-10-16T14:08:24;10.05;;;1.98;;
32295;SDS011;18781;51.550;5.418;2022-10-16T14:10:56;7.93;;;1.63;;
32295;SDS011;18781;51.550;5.418;2022-10-16T14:13:30;10.23;;;1.67;;
32295;SDS011;18781;51.550;5.418;2022-10-16T14:16:00;10.10;;;1.67;;
32295;SDS011;18781;51.550;5.418;2022-10-16T14:18:32;8.32;;;1.85;;
32295;SDS011;18781;51.550;5.418;2022-10-16T14:21:05;9.48;;;1.70;;
32295;SDS011;18781;51.550;5.418;2022-10-16T14:23:34;10.50;;;1.58;;
32295;SDS011;18781;51.550;5.418;2022-10-16T14:26:12;12.05;;;2.00;;
32295;SDS011;18781;51.550;5.418;2022-10-16T14:28:40;8.35;;;1.77;;
32295;SDS011;18781;51.550;5.418;2022-10-16T14:31:23;9.98;;;1.50;;
32295;SDS011;18781;51.550;5.418;2022-10-16T14:33:57;11.00;;;1.67;;
32295;SDS011;18781;51.550;5.418;2022-10-16T14:36:23;13.75;;;2.17;;
32295;SDS011;18781;51.550;5.418;2022-10-16T14:41:27;10.23;;;1.85;;
32295;SDS011;18781;51.550;5.418;2022-10-16T14:43:56;6.53;;;1.85;;
32295;SDS011;18781;51.550;5.418;2022-10-16T14:46:30;10.52;;;1.88;;
32295;SDS011;18781;51.550;5.418;2022-10-16T14:49:13;11.13;;;1.60;;
32295;SDS011;18781;51.550;5.418;2022-10-16T14:51:47;8.73;;;2.00;;
32295;SDS011;18781;51.550;5.418;2022-10-16T14:54:13;9.27;;;2.08;;
32295;SDS011;18781;51.550;5.418;2022-10-16T14:56:42;9.48;;;1.90;;
32295;SDS011;18781;51.550;5.418;2022-10-16T14:59:11;8.13;;;1.73;;
32295;SDS011;18781;51.550;5.418;2022-10-16T15:02:47;8.27;;;2.17;;
32295;SDS011;18781;51.550;5.418;2022-10-16T15:04:53;15.40;;;2.58;;
32295;SDS011;18781;51.550;5.418;2022-10-16T15:07:18;5.30;;;2.05;;
32295;SDS011;18781;51.550;5.418;2022-10-16T15:09:44;10.48;;;2.30;;
32295;SDS011;18781;51.550;5.418;2022-10-16T15:12:09;6.20;;;2.08;;
32295;SDS011;18781;51.550;5.418;2022-10-16T15:14:35;5.03;;;1.63;;
32295;SDS011;18781;51.550;5.418;2022-10-16T15:17:02;11.20;;;1.88;;
32295;SDS011;18781;51.550;5.418;2022-10-16T15:19:27;8.07;;;1.70;;
32295;SDS011;18781;51.550;5.418;2022-10-16T15:21:53;8.88;;;2.03;;
32295;SDS011;18781;51.550;5.418;2022-10-16T15:24:18;9.63;;;1.90;;
32295;SDS011;18781;51.550;5.418;2022-10-16T15:26:44;7.35;;;1.80;;
32295;SDS011;18781;51.550;5.418;2022-10-16T15:29:11;8.95;;;2.20;;
32295;SDS011;18781;51.550;5.418;2022-10-16T15:31:37;12.65;;;2.30;;
32295;SDS011;18781;51.550;5.418;2022-10-16T15:34:03;7.85;;;1.85;;
32295;SDS011;18781;51.550;5.418;2022-10-16T15:36:32;7.35;;;1.80;;
32295;SDS011;18781;51.550;5.418;2022-10-16T15:39:02;8.68;;;1.70;;
32295;SDS011;18781;51.550;5.418;2022-10-16T15:41:37;7.47;;;1.70;;
32295;SDS011;18781;51.550;5.418;2022-10-16T15:44:02;5.75;;;1.55;;
32295;SDS011;18781;51.550;5.418;2022-10-16T15:46:28;5.82;;;1.85;;
32295;SDS011;18781;51.550;5.418;2022-10-16T15:48:56;6.30;;;1.60;;
32295;SDS011;18781;51.550;5.418;2022-10-16T15:51:23;4.78;;;1.50;;
32295;SDS011;18781;51.550;5.418;2022-10-16T15:53:49;9.10;;;2.08;;
32295;SDS011;18781;51.550;5.418;2022-10-16T15:56:16;5.05;;;1.60;;
32295;SDS011;18781;51.550;5.418;2022-10-16T15:58:42;8.27;;;1.73;;
32295;SDS011;18781;51.550;5.418;2022-10-16T16:01:08;7.68;;;1.60;;
32295;SDS011;18781;51.550;5.418;2022-10-16T16:03:35;10.35;;;1.77;;
32295;SDS011;18781;51.550;5.418;2022-10-16T16:06:04;5.65;;;1.38;;
32295;SDS011;18781;51.550;5.418;2022-10-16T16:08:30;7.97;;;1.75;;
32295;SDS011;18781;51.550;5.418;2022-10-16T16:11:01;5.10;;;1.60;;
32295;SDS011;18781;51.550;5.418;2022-10-16T16:13:37;8.20;;;1.90;;
32295;SDS011;18781;51.550;5.418;2022-10-16T16:16:10;5.97;;;1.58;;
32295;SDS011;18781;51.550;5.418;2022-10-16T16:18:38;7.47;;;1.65;;
32295;SDS011;18781;51.550;5.418;2022-10-16T16:21:04;9.38;;;2.83;;
32295;SDS011;18781;51.550;5.418;2022-10-16T16:23:30;9.32;;;2.70;;
32295;SDS011;18781;51.550;5.418;2022-10-16T16:26:03;17.17;;;4.40;;
32295;SDS011;18781;51.550;5.418;2022-10-16T16:28:28;14.75;;;4.25;;
32295;SDS011;18781;51.550;5.418;2022-10-16T16:30:54;11.50;;;4.28;;
32295;SDS011;18781;51.550;5.418;2022-10-16T16:33:20;9.95;;;4.97;;
32295;SDS011;18781;51.550;5.418;2022-10-16T16:35:45;10.52;;;4.68;;
32295;SDS011;18781;51.550;5.418;2022-10-16T16:38:11;10.00;;;3.60;;
32295;SDS011;18781;51.550;5.418;2022-10-16T16:40:37;11.50;;;4.35;;
32295;SDS011;18781;51.550;5.418;2022-10-16T16:43:03;17.60;;;4.13;;
32295;SDS011;18781;51.550;5.418;2022-10-16T16:45:29;13.25;;;4.18;;
32295;SDS011;18781;51.550;5.418;2022-10-16T16:47:54;14.48;;;4.25;;
32295;SDS011;18781;51.550;5.418;2022-10-16T16:50:20;10.48;;;4.32;;
32295;SDS011;18781;51.550;5.418;2022-10-16T16:52:45;14.02;;;3.95;;
32295;SDS011;18781;51.550;5.418;2022-10-16T16:55:11;15.02;;;4.20;;
32295;SDS011;18781;51.550;5.418;2022-10-16T16:57:36;13.00;;;3.90;;
32295;SDS011;18781;51.550;5.418;2022-10-16T17:00:03;16.90;;;4.53;;
32295;SDS011;18781;51.550;5.418;2022-10-16T17:02:29;14.27;;;4.97;;
32295;SDS011;18781;51.550;5.418;2022-10-16T17:04:54;12.30;;;5.85;;
32295;SDS011;18781;51.550;5.418;2022-10-16T17:07:22;13.85;;;5.03;;
32295;SDS011;18781;51.550;5.418;2022-10-16T17:09:50;12.32;;;4.82;;
32295;SDS011;18781;51.550;5.418;2022-10-16T17:12:15;9.02;;;4.18;;